.
WxDataArchive / Data Records for 2006-03-25
2006-03-24 March 2006 2006-03-26

Data Records for Saturday, 25 March 2006

Time	Temp	Chill	HIndex	Humid	Dewpt	 Wind 	HiWind	WindDir	Rain 	Barom 
-----	----	-----	------	-----	-----	------	------	-------	-----	----- 
00:00	31.9	31.9	31.9	91	29.6	0	1	315	0.00	30.068 
00:05	32.1	32.1	32.1	91	29.8	0	1	315	0.00	30.068 
00:10	31.9	31.9	31.9	91	29.6	0	2	315	0.00	30.068 
00:15	31.9	31.9	31.9	91	29.6	0	1	315	0.00	30.063 
00:20	31.9	31.9	31.9	92	29.8	0	1	315	0.00	30.063 
00:25	31.9	31.9	31.9	92	29.8	0	1	315	0.00	30.063 
00:30	32.1	32.1	32.1	92	30.0	0	1	315	0.00	30.063 
00:35	32.1	32.1	32.1	92	30.0	0	1	315	0.00	30.063 
00:40	32.1	32.1	32.1	92	30.0	0	1	315	0.00	30.063 
00:45	32.1	32.1	32.1	92	30.0	0	1	315	0.00	30.060 
00:50	32.1	32.1	32.1	92	30.0	0	1	315	0.00	30.060 
00:55	32.1	32.1	32.1	92	30.0	0	1	315	0.00	30.060 
01:00	32.1	32.1	32.1	92	30.0	0	1	315	0.00	30.059 
01:05	32.1	32.1	32.1	92	30.0	0	1	315	0.00	30.059 
01:10	32.2	32.2	32.2	92	30.1	0	0	---	0.00	30.059 
01:15	32.2	32.2	32.2	92	30.1	0	1	315	0.00	30.057 
01:20	32.2	32.2	32.2	92	30.1	0	0	---	0.00	30.057 
01:25	32.2	32.2	32.2	92	30.1	0	1	315	0.00	30.057 
01:30	32.2	32.2	32.2	93	30.4	0	1	315	0.00	30.057 
01:35	32.2	32.2	32.2	93	30.4	0	1	315	0.00	30.057 
01:40	32.2	32.2	32.2	93	30.4	0	0	---	0.00	30.057 
01:45	32.2	32.2	32.2	93	30.4	0	0	---	0.00	30.057 
01:50	32.2	32.2	32.2	93	30.4	0	1	315	0.00	30.057 
01:55	32.2	32.2	32.2	93	30.4	0	0	---	0.00	30.057 
02:00	32.1	32.1	32.1	93	30.3	0	1	315	0.00	30.053 
02:05	32.2	32.2	32.2	93	30.4	0	0	---	0.00	30.053 
02:10	32.2	32.2	32.2	93	30.4	0	1	315	0.00	30.053 
02:15	32.1	32.1	32.1	93	30.3	0	1	315	0.00	30.054 
02:20	31.9	31.9	31.9	93	30.1	0	1	315	0.00	30.054 
02:25	31.9	31.9	31.9	93	30.1	0	1	315	0.00	30.054 
02:30	31.9	31.9	31.9	93	30.1	0	2	292	0.00	30.054 
02:35	31.9	31.9	31.9	93	30.1	0	1	292	0.00	30.054 
02:40	31.9	31.9	31.9	93	30.1	0	1	292	0.00	30.054 
02:45	32.1	32.1	32.1	93	30.3	0	1	292	0.00	30.054 
02:50	31.9	31.9	31.9	93	30.1	0	1	292	0.00	30.054 
02:55	31.9	31.9	31.9	93	30.1	0	1	292	0.00	30.054 
03:00	31.9	31.9	31.9	93	30.1	0	1	292	0.00	30.053 
03:05	31.8	31.8	31.8	93	30.0	0	1	292	0.00	30.053 
03:10	31.8	31.8	31.8	93	30.0	0	1	292	0.00	30.053 
03:15	31.6	31.6	31.6	92	29.5	0	1	292	0.00	30.052 
03:20	31.6	31.6	31.6	92	29.5	0	1	292	0.00	30.052 
03:25	31.8	31.8	31.8	92	29.7	0	1	292	0.00	30.052 
03:30	31.8	31.8	31.8	92	29.7	0	1	292	0.00	30.050 
03:35	31.8	31.8	31.8	92	29.7	0	1	292	0.00	30.050 
03:40	31.8	31.8	31.8	92	29.7	0	1	292	0.00	30.050 
03:45	31.9	31.9	31.9	92	29.8	0	1	292	0.00	30.048 
03:50	31.9	31.9	31.9	92	29.8	0	1	292	0.00	30.048 
03:55	31.9	31.9	31.9	92	29.8	0	1	292	0.00	30.048 
04:00	31.9	31.9	31.9	92	29.8	0	1	292	0.00	30.047 
04:05	31.9	31.9	31.9	92	29.8	0	1	292	0.00	30.047 
04:10	31.9	31.9	31.9	92	29.8	0	1	292	0.00	30.047 
04:15	31.9	31.9	31.9	92	29.8	0	1	292	0.00	30.050 
04:20	32.1	32.1	32.1	92	30.0	0	1	292	0.00	30.050 
04:25	32.1	32.1	32.1	92	30.0	0	2	248	0.00	30.050 
04:30	32.1	32.1	32.1	92	30.0	0	1	248	0.00	30.048 
04:35	32.1	32.1	32.1	92	30.0	0	1	248	0.00	30.048 
04:40	32.1	32.1	32.1	92	30.0	0	1	248	0.00	30.048 
04:45	32.1	32.1	32.1	92	30.0	0	1	248	0.00	30.051 
04:50	32.2	32.2	32.2	92	30.1	0	0	---	0.00	30.051 
04:55	32.2	32.2	32.2	92	30.1	0	1	270	0.00	30.051 
05:00	32.2	32.2	32.2	92	30.1	0	0	---	0.00	30.053 
05:05	32.2	32.2	32.2	92	30.1	0	2	270	0.00	30.053 
05:10	32.2	32.2	32.2	92	30.1	0	1	270	0.00	30.053 
05:15	32.2	32.2	32.2	92	30.1	0	1	270	0.00	30.057 
05:20	32.2	32.2	32.2	92	30.1	0	1	270	0.00	30.057 
05:25	32.2	32.2	32.2	92	30.1	0	1	270	0.00	30.057 
05:30	32.4	32.4	32.4	92	30.3	0	3	248	0.00	30.058 
05:35	32.4	32.4	32.4	91	30.1	0	2	248	0.00	30.058 
05:40	32.4	32.4	32.4	91	30.1	0	1	248	0.00	30.058 
05:45	32.4	32.4	32.4	91	30.1	0	1	248	0.00	30.060 
05:50	32.4	32.4	32.4	91	30.1	0	1	248	0.00	30.060 
05:55	32.4	32.4	32.4	90	29.8	0	1	248	0.00	30.060 
06:00	32.4	32.4	32.4	90	29.8	0	1	270	0.00	30.065 
06:05	32.5	32.5	32.5	90	29.9	0	1	270	0.00	30.065 
06:10	32.5	32.5	32.5	90	29.9	0	2	270	0.00	30.065 
06:15	32.5	32.5	32.5	89	29.6	0	2	270	0.00	30.068 
06:20	32.5	32.5	32.5	88	29.3	0	3	292	0.00	30.068 
06:25	32.5	32.5	32.5	87	29.1	0	3	270	0.00	30.068 
06:30	32.5	32.5	32.5	88	29.3	0	1	315	0.00	30.074 
06:35	32.7	32.7	32.7	88	29.5	0	2	292	0.00	30.074 
06:40	32.7	32.7	32.7	88	29.5	0	1	292	0.00	30.074 
06:45	32.7	32.7	32.7	88	29.5	0	3	292	0.00	30.077 
06:50	32.5	32.5	32.5	88	29.3	0	2	292	0.00	30.077 
06:55	32.5	32.5	32.5	88	29.3	0	1	315	0.00	30.077 
07:00	32.5	32.5	32.5	88	29.3	0	3	270	0.00	30.083 
07:05	32.5	32.5	32.5	88	29.3	1	2	292	0.00	30.083 
07:10	32.5	32.5	32.5	87	29.1	0	2	338	0.00	30.083 
07:15	32.5	32.5	32.5	87	29.1	0	3	270	0.00	30.089 
07:20	32.5	32.5	32.5	87	29.1	1	2	292	0.00	30.089 
07:25	32.5	32.5	32.5	86	28.8	0	2	292	0.00	30.089 
07:30	32.5	32.5	32.5	87	29.1	0	1	292	0.00	30.092 
07:35	32.7	32.7	32.7	87	29.3	0	1	292	0.00	30.092 
07:40	32.7	32.7	32.7	87	29.3	0	2	315	0.00	30.092 
07:45	32.7	32.7	32.7	87	29.3	0	2	292	0.00	30.092 
07:50	32.7	32.7	32.7	87	29.3	0	1	292	0.00	30.092 
07:55	32.8	32.8	32.8	86	29.1	0	1	292	0.00	30.092 
08:00	32.8	32.8	32.8	86	29.1	0	2	315	0.00	30.095 
08:05	32.9	32.9	32.9	85	28.9	1	3	270	0.00	30.095 
08:10	32.9	32.9	32.9	86	29.2	0	2	270	0.00	30.095 
08:15	33.1	33.1	33.1	86	29.4	0	2	292	0.00	30.101 
08:20	33.1	33.1	33.1	85	29.1	0	2	292	0.00	30.101 
08:25	33.1	33.1	33.1	85	29.1	0	1	292	0.00	30.101 
08:30	33.1	33.1	33.1	85	29.1	0	1	292	0.00	30.105 
08:35	33.2	33.2	33.2	86	29.5	0	2	292	0.00	30.105 
08:40	33.2	33.2	33.2	86	29.5	0	2	292	0.00	30.105 
08:45	33.4	33.4	33.4	86	29.7	0	1	292	0.00	30.105 
08:50	33.5	33.5	33.5	85	29.5	0	3	292	0.00	30.105 
08:55	33.5	33.5	33.5	85	29.5	0	2	315	0.00	30.105 
09:00	33.7	33.7	33.7	85	29.7	1	2	292	0.00	30.106 
09:05	34.0	34.0	34.0	84	29.7	1	3	338	0.01	30.106 
09:10	34.0	34.0	34.0	83	29.4	1	3	338	0.00	30.106 
09:15	34.0	34.0	34.0	83	29.4	1	4	270	0.00	30.109 
09:20	34.3	34.3	34.3	84	30.0	1	2	270	0.00	30.109 
09:25	34.4	34.4	34.4	84	30.1	1	3	338	0.00	30.109 
09:30	34.4	34.4	34.4	83	29.8	1	3	292	0.00	30.114 
09:35	34.6	34.6	34.6	84	30.3	1	2	315	0.00	30.114 
09:40	34.6	34.6	34.6	83	30.0	1	4	315	0.00	30.114 
09:45	34.6	34.6	34.6	82	29.7	2	5	270	0.00	30.115 
09:50	34.9	34.9	34.9	83	30.3	1	3	292	0.00	30.115 
09:55	35.3	35.3	35.3	83	30.7	1	3	292	0.00	30.115 
10:00	35.0	35.0	35.0	81	29.8	2	5	270	0.00	30.118 
10:05	34.9	34.9	34.9	82	30.0	1	3	338	0.00	30.118 
10:10	34.7	34.7	34.7	83	30.1	1	5	338	0.00	30.118 
10:15	34.7	34.7	34.7	83	30.1	1	2	0	0.00	30.119 
10:20	34.6	34.6	34.6	83	30.0	1	3	270	0.00	30.119 
10:25	34.6	34.6	34.6	84	30.3	1	4	315	0.00	30.119 
10:30	34.9	34.9	34.9	84	30.6	1	5	315	0.00	30.121 
10:35	35.6	35.6	35.6	85	31.5	0	3	292	0.00	30.121 
10:40	35.9	35.9	35.9	80	30.3	1	4	292	0.00	30.121 
10:45	35.8	35.8	35.8	80	30.2	1	3	0	0.00	30.122 
10:50	35.8	35.8	35.8	82	30.9	1	3	338	0.00	30.122 
10:55	36.0	36.0	36.0	82	31.0	2	5	292	0.00	30.122 
11:00	36.5	36.5	36.5	82	31.5	2	3	338	0.00	30.123 
11:05	36.8	36.8	36.8	78	30.6	1	3	0	0.00	30.123 
11:10	36.8	36.8	36.8	78	30.6	1	4	270	0.00	30.123 
11:15	36.6	36.6	36.6	77	30.1	1	4	338	0.00	30.127 
11:20	36.5	36.5	36.5	78	30.3	1	3	0	0.00	30.127 
11:25	36.2	36.2	36.2	77	29.7	1	6	338	0.00	30.127 
11:30	36.0	36.0	36.0	74	28.5	2	5	0	0.00	30.132 
11:35	36.2	36.2	36.2	75	29.1	1	3	338	0.00	30.132 
11:40	36.5	36.5	36.5	76	29.7	1	3	338	0.00	30.132 
11:45	36.9	36.9	36.9	75	29.7	1	4	0	0.00	30.133 
11:50	37.3	37.3	37.3	70	28.4	1	4	0	0.00	30.133 
11:55	37.9	37.9	37.9	69	28.7	1	4	0	0.00	30.133 
12:00	39.1	39.1	39.1	64	28.0	2	4	0	0.00	30.127 
12:05	39.3	39.3	39.3	62	27.4	2	5	0	0.00	30.127 
12:10	39.2	39.2	39.2	64	28.1	2	6	22	0.00	30.127 
12:15	38.9	38.9	38.9	63	27.4	2	7	338	0.00	30.130 
12:20	39.1	39.1	39.1	63	27.6	2	6	338	0.00	30.130 
12:25	39.8	39.8	39.8	64	28.6	2	5	338	0.00	30.130 
12:30	40.3	40.3	40.3	63	28.7	2	4	315	0.00	30.124 
12:35	40.1	40.1	40.1	61	27.7	2	6	338	0.00	30.124 
12:40	39.3	39.3	39.3	65	28.5	1	5	338	0.00	30.124 
12:45	39.2	39.2	39.2	66	28.8	2	5	338	0.00	30.128 
12:50	39.1	39.1	39.1	69	29.8	2	5	315	0.00	30.128 
12:55	39.5	39.5	39.5	63	28.0	2	6	338	0.00	30.128 
13:00	39.3	39.3	39.3	65	28.5	2	4	0	0.00	30.128 
13:05	39.2	39.2	39.2	64	28.1	2	4	338	0.00	30.128 
13:10	39.3	39.3	39.3	62	27.4	2	5	338	0.00	30.128 
13:15	40.1	40.1	40.1	65	29.3	2	5	45	0.00	30.123 
13:20	40.2	40.2	40.2	63	28.6	2	7	270	0.00	30.123 
13:25	40.2	40.2	40.2	64	29.0	1	3	0	0.00	30.123 
13:30	40.3	40.3	40.3	62	28.3	2	7	0	0.00	30.120 
13:35	40.1	40.1	40.1	63	28.5	2	6	338	0.00	30.120 
13:40	40.2	40.2	40.2	64	29.0	1	6	0	0.00	30.120 
13:45	41.1	41.1	41.1	64	29.9	2	4	0	0.00	30.116 
13:50	42.1	42.1	42.1	61	29.6	2	7	0	0.00	30.116 
13:55	41.3	41.3	41.3	59	28.1	2	5	338	0.00	30.116 
14:00	41.3	41.3	41.3	61	28.9	2	5	315	0.00	30.116 
14:05	41.8	41.8	41.8	60	28.9	2	4	0	0.00	30.116 
14:10	41.3	41.3	41.3	59	28.1	2	5	22	0.00	30.116 
14:15	41.1	41.1	41.1	59	27.9	2	6	0	0.00	30.116 
14:20	41.3	41.3	41.3	60	28.5	1	5	22	0.00	30.116 
14:25	41.9	41.9	41.9	58	28.2	2	5	0	0.00	30.116 
14:30	41.8	41.8	41.8	55	26.8	3	6	338	0.00	30.113 
14:35	41.6	41.6	41.6	56	27.1	2	6	315	0.00	30.113 
14:40	41.2	41.2	41.2	56	26.7	2	5	338	0.00	30.113 
14:45	41.3	41.3	41.3	59	28.1	1	3	338	0.00	30.109 
14:50	41.5	41.5	41.5	58	27.8	2	6	0	0.00	30.109 
14:55	41.1	41.1	41.1	62	29.1	2	5	338	0.00	30.109 
15:00	40.9	40.9	40.9	63	29.3	2	5	338	0.00	30.109 
15:05	41.8	41.8	41.8	62	29.7	1	4	338	0.00	30.109 
15:10	42.5	42.5	42.5	60	29.6	3	6	0	0.00	30.109 
15:15	42.2	42.2	42.2	60	29.3	2	7	0	0.00	30.104 
15:20	41.8	41.8	41.8	58	28.1	2	6	0	0.00	30.104 
15:25	42.3	42.3	42.3	57	28.2	2	4	338	0.00	30.104 
15:30	43.1	43.1	43.1	56	28.5	2	7	22	0.00	30.102 
15:35	42.9	42.9	42.9	56	28.3	2	5	315	0.00	30.102 
15:40	42.6	42.6	42.6	57	28.4	2	5	338	0.00	30.102 
15:45	41.6	41.6	41.6	60	28.8	2	7	292	0.00	30.105 
15:50	41.2	41.2	41.2	60	28.4	2	7	292	0.00	30.105 
15:55	41.8	41.8	41.8	61	29.4	2	6	0	0.00	30.105 
16:00	42.3	42.3	42.3	58	28.6	2	6	0	0.00	30.102 
16:05	42.6	42.6	42.6	58	28.9	2	6	0	0.00	30.102 
16:10	42.5	42.5	42.5	59	29.2	2	6	270	0.00	30.102 
16:15	41.9	41.9	41.9	59	28.6	3	7	338	0.00	30.111 
16:20	41.5	41.5	41.5	60	28.7	2	4	315	0.00	30.111 
16:25	41.5	41.5	41.5	59	28.3	3	6	315	0.00	30.111 
16:30	42.2	42.2	42.2	59	28.9	2	6	338	0.00	30.109 
16:35	42.2	42.2	42.2	58	28.5	2	5	315	0.00	30.109 
16:40	42.5	42.5	42.5	60	29.6	2	4	270	0.00	30.109 
16:45	42.6	42.6	42.6	59	29.3	2	6	315	0.00	30.112 
16:50	42.6	42.6	42.6	60	29.7	2	5	292	0.00	30.112 
16:55	42.8	42.8	42.8	58	29.1	2	5	315	0.00	30.112 
17:00	42.8	42.8	42.8	58	29.1	2	6	315	0.00	30.111 
17:05	42.5	42.5	42.5	60	29.6	3	6	315	0.00	30.111 
17:10	41.9	41.9	41.9	62	29.8	2	5	315	0.00	30.111 
17:15	41.5	41.5	41.5	60	28.7	3	9	292	0.00	30.114 
17:20	41.5	41.5	41.5	60	28.7	2	6	270	0.00	30.114 
17:25	41.5	41.5	41.5	61	29.1	2	5	0	0.00	30.114 
17:30	41.8	41.8	41.8	60	28.9	2	7	292	0.00	30.114 
17:35	41.8	41.8	41.8	61	29.4	2	6	338	0.00	30.114 
17:40	42.1	42.1	42.1	61	29.6	1	4	315	0.00	30.114 
17:45	42.1	42.1	42.1	62	30.0	1	3	315	0.00	30.115 
17:50	41.9	41.9	41.9	62	29.8	1	4	338	0.00	30.115 
17:55	41.8	41.8	41.8	62	29.7	1	4	315	0.00	30.115 
18:00	41.6	41.6	41.6	62	29.6	1	4	270	0.00	30.114 
18:05	41.3	41.3	41.3	61	28.9	1	4	315	0.00	30.114 
18:10	41.1	41.1	41.1	62	29.1	1	3	315	0.00	30.114 
18:15	40.8	40.8	40.8	63	29.2	1	3	270	0.00	30.114 
18:20	40.8	40.8	40.8	63	29.2	1	2	270	0.00	30.114 
18:25	40.9	40.9	40.9	65	30.1	2	3	270	0.00	30.114 
18:30	40.8	40.8	40.8	65	30.0	1	2	315	0.00	30.119 
18:35	40.8	40.8	40.8	65	30.0	1	4	270	0.00	30.119 
18:40	40.5	40.5	40.5	66	30.0	1	5	315	0.00	30.119 
18:45	40.3	40.3	40.3	66	29.9	2	5	292	0.00	30.130 
18:50	40.1	40.1	40.1	66	29.7	1	4	292	0.00	30.130 
18:55	39.6	39.6	39.6	67	29.6	1	3	338	0.00	30.130 
19:00	39.5	39.5	39.5	66	29.1	1	3	292	0.00	30.132 
19:05	39.3	39.3	39.3	67	29.3	1	3	338	0.00	30.132 
19:10	39.1	39.1	39.1	68	29.4	1	4	270	0.00	30.132 
19:15	38.9	38.9	38.9	69	29.6	1	3	338	0.00	30.135 
19:20	38.9	38.9	38.9	70	30.0	1	3	315	0.00	30.135 
19:25	38.9	38.9	38.9	70	30.0	1	3	270	0.00	30.135 
19:30	38.9	38.9	38.9	71	30.3	1	3	270	0.00	30.137 
19:35	38.8	38.8	38.8	71	30.2	1	4	315	0.00	30.137 
19:40	38.8	38.8	38.8	71	30.2	1	4	315	0.00	30.137 
19:45	38.8	38.8	38.8	71	30.2	1	4	292	0.00	30.138 
19:50	38.8	38.8	38.8	71	30.2	2	4	315	0.00	30.138 
19:55	38.8	38.8	38.8	71	30.2	1	4	315	0.00	30.138 
20:00	38.8	38.8	38.8	71	30.2	1	6	292	0.00	30.145 
20:05	38.6	38.6	38.6	71	30.0	1	4	292	0.00	30.145 
20:10	38.5	38.5	38.5	72	30.3	1	4	315	0.00	30.145 
20:15	38.2	38.2	38.2	72	30.0	1	4	292	0.00	30.149 
20:20	38.0	38.0	38.0	73	30.1	2	7	270	0.00	30.149 
20:25	37.9	37.9	37.9	73	30.0	1	4	315	0.00	30.149 
20:30	37.9	37.9	37.9	72	29.7	2	4	315	0.00	30.156 
20:35	37.9	37.9	37.9	72	29.7	2	4	315	0.00	30.156 
20:40	37.9	37.9	37.9	73	30.0	2	6	292	0.00	30.156 
20:45	37.9	37.9	37.9	73	30.0	3	7	270	0.00	30.160 
20:50	37.8	37.8	37.8	73	29.9	3	5	338	0.00	30.160 
20:55	37.6	37.6	37.6	73	29.7	1	5	292	0.00	30.160 
21:00	37.6	37.6	37.6	73	29.7	2	4	292	0.00	30.163 
21:05	37.5	37.5	37.5	74	30.0	1	4	315	0.00	30.163 
21:10	37.3	37.3	37.3	73	29.5	2	9	292	0.00	30.163 
21:15	37.2	37.2	37.2	73	29.4	2	5	315	0.00	30.165 
21:20	37.0	37.0	37.0	73	29.2	2	5	315	0.00	30.165 
21:25	36.9	36.9	36.9	74	29.4	2	5	315	0.00	30.165 
21:30	36.8	36.8	36.8	74	29.3	2	4	270	0.00	30.164 
21:35	36.6	36.6	36.6	74	29.1	2	4	270	0.00	30.164 
21:40	36.5	36.5	36.5	74	29.0	1	5	292	0.00	30.164 
21:45	36.5	36.5	36.5	74	29.0	2	5	270	0.00	30.163 
21:50	36.3	36.3	36.3	75	29.1	1	3	292	0.00	30.163 
21:55	36.3	36.3	36.3	75	29.1	1	3	315	0.00	30.163 
22:00	36.3	36.3	36.3	75	29.1	1	3	315	0.00	30.165 
22:05	36.3	36.3	36.3	75	29.1	1	3	270	0.00	30.165 
22:10	36.2	36.2	36.2	75	29.1	1	4	270	0.00	30.165 
22:15	36.2	36.2	36.2	75	29.1	1	3	315	0.00	30.164 
22:20	36.0	36.0	36.0	76	29.2	1	3	0	0.00	30.164 
22:25	36.0	36.0	36.0	76	29.2	1	3	338	0.00	30.164 
22:30	35.9	35.9	35.9	76	29.1	1	2	338	0.00	30.163 
22:35	35.8	35.8	35.8	77	29.3	1	3	338	0.00	30.163 
22:40	35.8	35.8	35.8	77	29.3	1	4	338	0.00	30.163 
22:45	35.8	35.8	35.8	77	29.3	1	4	338	0.00	30.163 
22:50	35.6	35.6	35.6	77	29.1	1	4	292	0.00	30.163 
22:55	35.5	35.5	35.5	77	29.0	2	3	292	0.00	30.163 
23:00	35.3	35.3	35.3	78	29.1	1	2	270	0.00	30.164 
23:05	35.3	35.3	35.3	78	29.1	1	3	315	0.00	30.164 
23:10	35.2	35.2	35.2	79	29.4	1	3	315	0.00	30.164 
23:15	35.0	35.0	35.0	79	29.2	1	3	315	0.00	30.161 
23:20	34.9	34.9	34.9	80	29.4	1	4	292	0.00	30.161 
23:25	34.6	34.6	34.6	80	29.1	1	4	270	0.00	30.161 
23:30	34.4	34.4	34.4	81	29.2	1	3	338	0.00	30.161 
23:35	34.3	34.3	34.3	81	29.1	0	2	338	0.00	30.161 
23:40	34.1	34.1	34.1	81	28.9	0	1	338	0.00	30.161 
23:45	34.0	34.0	34.0	82	29.1	0	1	338	0.00	30.163 
23:50	34.0	34.0	34.0	82	29.1	0	2	338	0.00	30.163 
23:55	34.0	34.0	34.0	83	29.4	0	2	292	0.00	30.163 

CoCoRaHS
IN-AL-39
A2 Web Hosting
Creative Commons License
GoDaddy
Look for:

loaded 2017-10-18 07:30:15 • last modified 2010-11-18 10:43:29
Privacy PolicyDisclaimer
• wx.awcolley.com is powered by PmWiki v.2002016 •
• all content (unless otherwise noted) © 2017 A W Colley